Time;durP1;ratioP1;P1;durP2;ratioP2;P2;SDS_P1;SDS_P2;PMS_P1;PMS_P2;Temp;Humidity;BMP_temperature;BMP_pressure;BME280_temperature;BME280_humidity;BME280_pressure;Samples;Min_cycle;Max_cycle;Signal;HPM_P1;HPM_P2
2021/06/30 00:02:12;;;;;;;4.22;1.52;;;;;;;16.00;82.53;101059.66;5110812;28;20040;-59
2021/06/30 00:04:44;;;;;;;4.45;1.73;;;;;;;15.92;82.88;101056.84;5112512;27;20134;-58
2021/06/30 00:07:16;;;;;;;3.47;1.50;;;;;;;15.89;83.62;101060.56;5094214;27;20559;-59
2021/06/30 00:09:48;;;;;;;3.58;1.60;;;;;;;15.88;84.32;101056.25;5130031;27;20039;-58
2021/06/30 00:12:19;;;;;;;2.63;1.50;;;;;;;15.95;84.61;101055.72;5111837;28;20058;-58
2021/06/30 00:14:52;;;;;;;2.88;1.77;;;;;;;15.89;84.29;101054.44;5121898;27;20190;-58
2021/06/30 00:17:24;;;;;;;5.82;1.88;;;;;;;15.92;84.79;101058.66;5110174;27;20043;-58
2021/06/30 00:19:56;;;;;;;3.20;1.40;;;;;;;16.02;84.88;101064.84;5112109;27;20058;-59
2021/06/30 00:22:28;;;;;;;1.80;1.30;;;;;;;15.89;85.02;101070.34;5114279;27;20139;-55
2021/06/30 00:25:00;;;;;;;4.03;1.50;;;;;;;16.01;84.31;101073.78;5110976;27;20040;-56
2021/06/30 00:27:32;;;;;;;4.78;1.83;;;;;;;16.02;84.72;101072.81;5112778;27;20049;-55
2021/06/30 00:30:05;;;;;;;2.60;1.17;;;;;;;15.85;84.85;101069.75;5111497;27;20130;-53
2021/06/30 00:32:37;;;;;;;3.25;1.38;;;;;;;15.80;85.30;101068.47;5130974;27;20416;-54
2021/06/30 00:35:11;;;;;;;2.25;1.25;;;;;;;15.94;84.94;101060.22;5112489;27;20138;-54
2021/06/30 00:37:43;;;;;;;1.60;1.10;;;;;;;15.83;84.98;101060.28;5130471;27;20468;-55
2021/06/30 00:40:15;;;;;;;2.42;1.40;;;;;;;15.79;84.38;101053.50;5127717;27;20061;-52
2021/06/30 00:42:47;;;;;;;2.28;1.38;;;;;;;15.68;85.21;101059.72;5109946;28;20044;-59
2021/06/30 00:45:20;;;;;;;1.88;1.25;;;;;;;15.78;85.62;101059.78;5092589;27;20039;-53
2021/06/30 00:47:52;;;;;;;1.67;1.00;;;;;;;15.62;85.59;101063.69;5112238;27;20039;-53
2021/06/30 00:50:23;;;;;;;2.90;1.35;;;;;;;15.59;86.00;101056.00;5097634;28;20035;-57
2021/06/30 00:52:55;;;;;;;1.38;1.10;;;;;;;15.60;86.15;101060.34;5113291;27;20031;-57
2021/06/30 00:55:27;;;;;;;1.58;1.17;;;;;;;15.71;86.44;101057.63;5099801;28;20042;-58
2021/06/30 00:57:59;;;;;;;2.40;1.40;;;;;;;15.74;85.45;101058.38;5129393;27;20457;-58
2021/06/30 01:00:31;;;;;;;2.85;1.33;;;;;;;15.72;86.07;101056.66;5109750;27;20047;-58
2021/06/30 01:03:03;;;;;;;2.75;1.33;;;;;;;15.74;84.95;101064.50;5092477;28;20047;-53
2021/06/30 01:05:34;;;;;;;2.20;1.27;;;;;;;15.77;84.92;101060.75;5113974;28;20124;-52
2021/06/30 01:08:07;;;;;;;2.13;1.30;;;;;;;15.85;84.78;101060.97;5109924;28;20039;-52
2021/06/30 01:10:38;;;;;;;3.08;1.27;;;;;;;15.84;85.10;101059.28;5106375;28;20541;-58
2021/06/30 01:13:10;;;;;;;2.58;1.38;;;;;;;15.68;85.30;101063.19;5109509;28;20093;-58
2021/06/30 01:15:56;;;;;;;1.67;1.10;;;;;;;15.74;84.94;101064.50;5093988;28;20039;-58
2021/06/30 01:18:30;;;;;;;2.65;1.40;;;;;;;15.67;85.63;101058.88;5111926;28;20039;-51
2021/06/30 01:21:05;;;;;;;2.42;1.30;;;;;;;15.65;84.94;101058.16;5107622;28;20043;-54
2021/06/30 01:23:37;;;;;;;3.13;1.33;;;;;;;15.71;85.38;101062.09;5110255;28;20058;-55
2021/06/30 01:26:10;;;;;;;3.33;1.50;;;;;;;15.71;85.17;101054.97;5114179;28;20063;-52
2021/06/30 01:28:42;;;;;;;2.58;1.45;;;;;;;15.57;85.46;101054.44;5112589;28;20495;-59
2021/06/30 01:31:14;;;;;;;3.83;1.45;;;;;;;15.58;85.57;101050.84;5110517;28;20043;-59
2021/06/30 01:33:46;;;;;;;2.10;1.23;;;;;;;15.68;85.57;101047.28;5129314;28;20137;-53
2021/06/30 01:36:18;;;;;;;2.05;1.48;;;;;;;15.71;85.49;101046.19;5104696;28;20039;-53
2021/06/30 01:38:49;;;;;;;3.55;1.80;;;;;;;15.65;84.92;101039.59;5118375;27;20516;-53
2021/06/30 01:41:21;;;;;;;2.70;1.48;;;;;;;15.60;85.34;101041.78;5131567;27;20051;-54
2021/06/30 01:43:53;;;;;;;2.83;1.40;;;;;;;15.53;85.21;101037.97;5109598;27;20130;-52
2021/06/30 01:46:25;;;;;;;3.47;1.63;;;;;;;15.49;85.72;101031.25;5132752;27;20039;-58
2021/06/30 01:48:56;;;;;;;3.45;1.67;;;;;;;15.50;85.66;101033.78;5128952;27;20221;-58
2021/06/30 01:51:28;;;;;;;3.03;1.40;;;;;;;15.55;85.23;101028.91;5134069;27;20042;-55
2021/06/30 01:54:02;;;;;;;4.53;1.60;;;;;;;15.47;85.22;101030.53;5132083;27;20618;-53
2021/06/30 01:56:34;;;;;;;2.92;1.50;;;;;;;15.51;86.42;101032.78;5132135;27;20661;-51
2021/06/30 01:59:11;;;;;;;3.67;1.80;;;;;;;15.53;85.53;101030.03;5114228;27;20065;-53
2021/06/30 02:01:44;;;;;;;3.05;1.45;;;;;;;15.44;85.14;101030.78;5129498;27;20047;-54
2021/06/30 02:04:16;;;;;;;3.83;1.30;;;;;;;15.46;85.40;101027.03;5116974;27;20047;-53
2021/06/30 02:06:47;;;;;;;1.67;1.30;;;;;;;15.38;85.46;101021.53;5115840;27;20036;-54
2021/06/30 02:09:19;;;;;;;4.18;1.50;;;;;;;15.53;85.27;101027.38;5112972;27;20042;-52
2021/06/30 02:11:51;;;;;;;2.35;1.17;;;;;;;15.55;85.54;101028.91;5131328;27;20043;-54
2021/06/30 02:14:17;;;;;;;3.00;1.45;;;;;;;15.50;85.38;101020.53;5126752;27;20058;-52
2021/06/30 02:16:49;;;;;;;3.42;1.40;;;;;;;15.33;85.89;101010.47;5117157;27;20031;-51
2021/06/30 02:19:21;;;;;;;2.50;1.50;;;;;;;15.35;86.20;100990.84;5112905;27;20464;-52
2021/06/30 02:21:53;;;;;;;3.10;1.73;;;;;;;15.32;86.06;100992.88;5113219;27;20770;-51
2021/06/30 02:24:24;;;;;;;2.42;1.23;;;;;;;15.23;86.37;100999.81;5113666;27;20051;-53
2021/06/30 02:26:56;;;;;;;4.03;1.35;;;;;;;15.36;86.47;101010.22;5131735;27;20050;-58
2021/06/30 02:29:28;;;;;;;2.60;1.30;;;;;;;15.26;85.77;101004.00;5095738;28;20395;-58
2021/06/30 02:31:59;;;;;;;7.38;1.60;;;;;;;15.38;86.32;101009.13;5113208;27;20726;-57
2021/06/30 02:34:31;;;;;;;1.75;1.20;;;;;;;15.38;85.45;101001.16;5129869;27;20138;-58
2021/06/30 02:37:03;;;;;;;2.45;1.30;;;;;;;15.33;86.27;101008.66;5135109;27;20053;-57
2021/06/30 02:39:35;;;;;;;3.27;1.53;;;;;;;15.36;86.00;101016.34;5114287;27;20047;-57
2021/06/30 02:42:07;;;;;;;2.47;1.20;;;;;;;15.36;86.07;101002.25;5107992;28;20122;-53
2021/06/30 02:44:38;;;;;;;2.53;1.48;;;;;;;15.26;86.32;101002.19;5129854;27;20128;-52
2021/06/30 02:47:10;;;;;;;2.05;1.27;;;;;;;15.31;85.63;100997.34;5132256;27;20046;-52
2021/06/30 02:49:42;;;;;;;2.25;1.50;;;;;;;15.34;85.90;100997.09;5129398;27;20063;-53
2021/06/30 02:52:14;;;;;;;3.60;1.60;;;;;;;15.34;86.52;100998.91;5131365;27;20550;-53
2021/06/30 02:54:46;;;;;;;2.20;1.33;;;;;;;15.36;86.42;101003.09;5096307;28;20399;-57
2021/06/30 02:57:17;;;;;;;2.95;1.40;;;;;;;15.35;85.95;101001.44;5110993;28;20040;-58
2021/06/30 02:59:49;;;;;;;2.83;1.30;;;;;;;15.19;86.17;101001.03;5129600;27;20058;-58
2021/06/30 03:02:21;;;;;;;2.20;1.30;;;;;;;15.09;86.91;101000.91;5118906;27;20391;-58
2021/06/30 03:04:53;;;;;;;2.30;1.10;;;;;;;15.02;87.11;101005.03;5129752;27;20124;-57
2021/06/30 03:07:24;;;;;;;1.70;1.00;;;;;;;15.06;86.34;101010.94;5131760;27;20062;-58
2021/06/30 03:09:56;;;;;;;2.55;1.30;;;;;;;14.95;86.67;101002.03;5112781;27;20407;-57
2021/06/30 03:12:28;;;;;;;2.22;1.20;;;;;;;14.97;86.71;101002.78;5093183;28;20069;-57
2021/06/30 03:15:00;;;;;;;2.75;1.17;;;;;;;14.97;86.37;101007.22;5111017;27;20451;-57
2021/06/30 03:17:34;;;;;;;2.13;1.27;;;;;;;14.81;87.15;100999.69;5110843;28;20036;-57
2021/06/30 03:20:09;;;;;;;2.80;1.15;;;;;;;14.82;87.46;101004.84;5112469;27;20055;-57
2021/06/30 03:22:42;;;;;;;1.20;0.93;;;;;;;14.88;87.11;100998.22;5094604;28;20513;-58
2021/06/30 03:25:14;;;;;;;;;;;;;;;14.90;87.17;101004.22;5121380;27;20058;-54
2021/06/30 03:27:46;;;;;;;2.05;1.25;;;;;;;14.90;87.60;101000.75;5110781;27;19935;-52
2021/06/30 03:30:13;;;;;;;1.42;1.10;;;;;;;14.96;87.58;101003.72;5116769;27;20116;-57
2021/06/30 03:32:45;;;;;;;3.17;1.20;;;;;;;14.93;87.31;100990.75;5111286;27;20047;-57
2021/06/30 03:35:17;;;;;;;1.95;1.33;;;;;;;14.88;88.21;100996.41;5104247;27;20294;-58
2021/06/30 03:37:48;;;;;;;1.70;1.00;;;;;;;15.03;87.38;101001.44;5131366;27;20050;-57
2021/06/30 03:40:20;;;;;;;1.70;1.20;;;;;;;14.87;87.28;100999.19;5121596;27;20403;-53
2021/06/30 03:42:52;;;;;;;2.97;1.30;;;;;;;14.89;87.87;101010.50;5112708;27;20046;-54
2021/06/30 03:45:24;;;;;;;2.00;1.20;;;;;;;14.95;87.23;101011.81;5125975;27;20050;-53
2021/06/30 03:47:55;;;;;;;2.30;1.38;;;;;;;15.00;87.87;101009.63;5114073;27;20039;-52
2021/06/30 03:50:27;;;;;;;2.08;1.27;;;;;;;14.98;86.94;101007.13;5130730;27;20046;-52
2021/06/30 03:52:59;;;;;;;2.13;1.40;;;;;;;14.96;87.17;101006.38;5115979;27;20491;-54
2021/06/30 03:55:31;;;;;;;1.85;1.27;;;;;;;14.92;87.01;101015.53;5111785;27;20047;-54
2021/06/30 03:58:02;;;;;;;3.30;1.50;;;;;;;14.95;86.98;101015.28;5134036;27;20077;-53
2021/06/30 04:00:34;;;;;;;2.72;1.27;;;;;;;14.96;87.48;101016.97;5118569;27;20047;-52
2021/06/30 04:03:06;;;;;;;1.73;1.15;;;;;;;14.90;87.09;101016.63;5127977;27;20150;-53
2021/06/30 04:05:38;;;;;;;1.95;1.30;;;;;;;14.82;87.41;101020.75;5118305;27;20051;-52
2021/06/30 04:08:10;;;;;;;3.15;1.33;;;;;;;14.86;87.04;101016.03;5091722;27;20047;-51
2021/06/30 04:10:42;;;;;;;2.60;1.60;;;;;;;14.93;88.13;101024.31;5122653;27;20131;-51
2021/06/30 04:13:16;;;;;;;3.27;1.80;;;;;;;14.93;86.75;101027.81;5104883;28;20102;-51
2021/06/30 04:15:48;;;;;;;2.35;1.42;;;;;;;14.92;87.34;101034.06;5098264;28;20138;-54
2021/06/30 04:18:19;;;;;;;4.57;1.65;;;;;;;15.00;87.32;101036.94;5109934;28;20050;-52
2021/06/30 04:20:51;;;;;;;3.30;1.80;;;;;;;15.03;86.74;101034.03;5127491;27;20452;-52
2021/06/30 04:23:23;;;;;;;2.50;1.48;;;;;;;14.96;86.55;101035.50;5131296;27;20031;-52
2021/06/30 04:25:55;;;;;;;4.43;1.90;;;;;;;15.02;86.65;101035.03;5118023;27;20067;-54
2021/06/30 04:28:26;;;;;;;2.92;1.50;;;;;;;14.93;86.52;101026.97;5109976;28;20075;-54
2021/06/30 04:30:59;;;;;;;4.53;1.70;;;;;;;14.84;87.13;101025.91;5094020;28;20127;-54
2021/06/30 04:33:30;;;;;;;4.35;1.90;;;;;;;14.83;87.26;101021.56;5096383;28;20067;-54
2021/06/30 04:36:03;;;;;;;4.35;1.65;;;;;;;14.91;87.57;101027.09;5119610;27;20138;-57
2021/06/30 04:38:34;;;;;;;3.80;1.90;;;;;;;14.87;86.23;101020.34;5133622;27;20074;-53
2021/06/30 04:41:06;;;;;;;3.80;1.70;;;;;;;14.83;87.11;101021.56;5099539;28;20127;-53
2021/06/30 04:43:39;;;;;;;4.00;2.28;;;;;;;14.67;86.76;101025.47;5104558;27;20031;-58
2021/06/30 04:46:11;;;;;;;5.18;2.05;;;;;;;14.82;86.40;101022.53;5119113;27;20122;-57
2021/06/30 04:48:42;;;;;;;4.78;1.98;;;;;;;14.84;86.90;101017.97;5091710;28;20050;-58
2021/06/30 04:51:14;;;;;;;5.10;1.80;;;;;;;14.79;86.30;101018.34;5110477;28;20055;-58
2021/06/30 04:53:47;;;;;;;3.35;1.95;;;;;;;14.69;86.85;101025.31;5121889;27;20051;-58
2021/06/30 04:56:26;;;;;;;3.08;1.98;;;;;;;14.72;86.75;101026.88;5118046;27;20051;-58
2021/06/30 04:58:58;;;;;;;4.30;2.17;;;;;;;14.75;87.01;101027.50;5109485;28;20139;-57
2021/06/30 05:01:30;;;;;;;5.30;2.38;;;;;;;14.68;86.45;101039.53;5109285;28;20523;-58
2021/06/30 05:04:03;;;;;;;5.00;2.25;;;;;;;14.74;87.18;101039.03;5109284;28;20050;-58
2021/06/30 05:06:36;;;;;;;;;;;;;;;14.78;86.32;101039.63;5092941;28;20039;-57
2021/06/30 05:09:08;;;;;;;4.00;2.03;;;;;;;14.83;86.22;101038.31;5114679;28;20227;-57
2021/06/30 05:11:41;;;;;;;5.32;2.40;;;;;;;14.69;86.63;101041.22;5112601;28;20072;-57
2021/06/30 05:14:12;;;;;;;10.38;3.00;;;;;;;14.58;87.19;101049.97;5134688;27;20383;-57
2021/06/30 05:16:44;;;;;;;5.10;2.85;;;;;;;14.72;86.74;101050.72;5117658;27;20038;-58
2021/06/30 05:19:16;;;;;;;4.43;2.67;;;;;;;14.69;86.72;101044.69;5121199;27;20059;-57
2021/06/30 05:21:48;;;;;;;6.32;2.67;;;;;;;14.70;87.24;101041.09;5110766;27;20100;-57
2021/06/30 05:24:20;;;;;;;5.87;2.73;;;;;;;14.73;87.41;101037.34;5126900;27;20043;-59
2021/06/30 05:26:52;;;;;;;4.50;2.45;;;;;;;14.73;87.26;101037.34;5119031;27;20116;-58
2021/06/30 05:29:19;;;;;;;5.97;2.78;;;;;;;14.72;87.25;101035.66;5135886;27;20496;-58
2021/06/30 05:31:45;;;;;;;5.18;3.00;;;;;;;14.66;87.47;101042.28;5104594;28;20120;-58
2021/06/30 05:34:17;;;;;;;6.20;3.22;;;;;;;14.67;87.34;101048.41;5116598;27;20051;-58
2021/06/30 05:36:49;;;;;;;5.18;2.90;;;;;;;14.81;87.70;101039.41;5114034;27;20055;-58
2021/06/30 05:39:21;;;;;;;6.82;3.10;;;;;;;14.90;87.54;101041.28;5117893;27;20043;-58
2021/06/30 05:41:53;;;;;;;6.57;3.00;;;;;;;14.88;87.14;101040.59;5114397;27;20745;-58
2021/06/30 05:44:25;;;;;;;6.80;3.22;;;;;;;14.87;87.13;101044.19;5112044;27;20411;-51
2021/06/30 05:46:56;;;;;;;5.20;2.92;;;;;;;14.96;87.38;101039.97;5121862;27;20065;-53
2021/06/30 05:49:28;;;;;;;5.75;2.75;;;;;;;15.00;87.03;101039.59;5133743;27;20043;-50
2021/06/30 05:52:00;;;;;;;5.95;2.97;;;;;;;14.91;87.25;101035.03;5121039;27;20570;-51
2021/06/30 05:54:32;;;;;;;4.88;2.85;;;;;;;14.77;86.97;101045.91;5113346;28;20040;-54
2021/06/30 05:56:58;;;;;;;5.30;2.50;;;;;;;14.83;86.95;101043.59;5127282;27;20391;-53
2021/06/30 05:59:30;;;;;;;6.03;2.85;;;;;;;14.87;86.85;101044.19;5123774;27;20086;-52
2021/06/30 06:02:02;;;;;;;4.93;2.13;;;;;;;14.85;87.11;101043.47;5120169;27;20063;-50
2021/06/30 06:04:34;;;;;;;5.28;2.40;;;;;;;15.03;86.98;101044.63;5101443;28;20502;-54
2021/06/30 06:07:06;;;;;;;6.32;2.42;;;;;;;15.06;86.67;101048.84;5126755;27;20134;-51
2021/06/30 06:09:37;;;;;;;4.82;2.03;;;;;;;15.08;86.07;101052.22;5110047;28;20086;-53
2021/06/30 06:12:09;;;;;;;5.95;2.50;;;;;;;15.16;86.96;101056.88;5118370;27;20391;-51
2021/06/30 06:14:41;;;;;;;4.97;2.50;;;;;;;15.13;86.03;101049.19;5120868;27;20096;-54
2021/06/30 06:17:13;;;;;;;3.47;1.90;;;;;;;15.01;85.44;101057.16;5118786;27;20043;-53
2021/06/30 06:19:44;;;;;;;4.85;2.10;;;;;;;15.07;86.69;101052.34;5118498;27;20039;-52
2021/06/30 06:22:16;;;;;;;3.90;2.03;;;;;;;15.13;86.03;101057.97;5123662;27;20097;-53
2021/06/30 06:24:48;;;;;;;4.50;2.50;;;;;;;15.12;86.69;101052.78;5111715;27;20077;-57
2021/06/30 06:27:20;;;;;;;3.60;2.10;;;;;;;15.04;87.56;101051.63;5110044;27;20118;-57
2021/06/30 06:29:51;;;;;;;3.15;1.80;;;;;;;15.00;87.02;101052.84;5117637;27;20050;-57
2021/06/30 06:32:23;;;;;;;4.15;2.30;;;;;;;15.03;87.91;101052.56;5131743;27;20046;-56
2021/06/30 06:34:55;;;;;;;4.80;2.28;;;;;;;15.04;88.24;101046.31;5120029;27;20051;-57
2021/06/30 06:37:27;;;;;;;4.13;1.98;;;;;;;14.95;87.95;101051.53;5070091;28;20058;-56
2021/06/30 06:39:59;;;;;;;3.75;1.77;;;;;;;14.97;88.09;101055.75;5098306;27;20048;-57
2021/06/30 06:42:26;;;;;;;3.35;2.00;;;;;;;15.13;89.11;101055.31;5096548;27;20050;-57
2021/06/30 06:44:57;;;;;;;3.80;1.95;;;;;;;15.16;88.64;101051.59;5129094;27;20059;-57
2021/06/30 06:47:29;;;;;;;3.75;1.70;;;;;;;15.13;88.20;101054.50;5100149;27;20381;-58
2021/06/30 06:50:01;;;;;;;3.25;1.63;;;;;;;15.14;87.70;101053.53;5125386;27;20492;-48
2021/06/30 06:52:33;;;;;;;3.33;1.90;;;;;;;15.18;88.63;101060.25;5095658;27;20069;-53
2021/06/30 06:55:10;;;;;;;3.55;1.70;;;;;;;15.22;87.66;101056.41;5116915;27;20040;-56
2021/06/30 06:57:41;;;;;;;2.95;1.85;;;;;;;15.34;88.97;101063.34;5102092;28;20039;-52
2021/06/30 07:00:09;;;;;;;4.78;2.10;;;;;;;15.32;87.21;101054.66;5102633;27;20114;-53
2021/06/30 07:02:40;;;;;;;4.03;1.80;;;;;;;15.37;87.64;101055.13;5117331;27;20533;-52
2021/06/30 07:05:12;;;;;;;2.63;1.88;;;;;;;15.33;87.13;101061.66;5106093;27;20061;-54
2021/06/30 07:07:45;;;;;;;3.40;1.80;;;;;;;15.30;88.46;101061.91;5123451;27;20039;-54
2021/06/30 07:10:17;;;;;;;3.03;1.80;;;;;;;15.32;88.06;101065.25;5131233;27;20059;-54
2021/06/30 07:12:48;;;;;;;3.05;1.95;;;;;;;15.44;88.04;101066.06;5131306;27;20514;-53
2021/06/30 07:15:20;;;;;;;4.22;2.03;;;;;;;15.36;86.74;101071.16;5129929;27;20122;-57
2021/06/30 07:17:52;;;;;;;3.58;1.95;;;;;;;15.45;86.25;101066.94;5102206;28;20048;-57
2021/06/30 07:20:24;;;;;;;3.28;1.80;;;;;;;15.50;85.62;101070.88;5114627;28;20587;-56
2021/06/30 07:22:55;;;;;;;2.90;1.75;;;;;;;15.44;87.22;101067.88;5114569;28;20067;-57
2021/06/30 07:25:29;;;;;;;4.22;1.95;;;;;;;15.61;86.18;101070.00;5080206;28;20043;-52
2021/06/30 07:28:01;;;;;;;2.88;1.70;;;;;;;15.53;85.63;101069.78;5114630;28;20036;-53
2021/06/30 07:30:28;;;;;;;3.78;1.90;;;;;;;15.51;87.41;101069.06;5113984;28;20078;-57
2021/06/30 07:33:00;;;;;;;3.42;2.10;;;;;;;15.58;86.84;101064.91;5114150;28;20052;-58
2021/06/30 07:35:32;;;;;;;3.70;1.98;;;;;;;15.65;87.39;101067.91;5114183;28;20415;-52
2021/06/30 07:38:04;;;;;;;3.97;2.10;;;;;;;15.72;87.17;101069.09;5112048;28;20044;-53
2021/06/30 07:40:36;;;;;;;3.43;2.10;;;;;;;15.65;86.67;101071.41;5117823;27;20044;-58
2021/06/30 07:43:08;;;;;;;2.97;1.90;;;;;;;15.75;86.29;101075.94;5076847;28;20567;-58
2021/06/30 07:45:37;;;;;;;3.47;1.85;;;;;;;15.72;85.70;101077.88;5093713;28;20078;-58
2021/06/30 07:48:04;;;;;;;3.22;1.80;;;;;;;15.64;84.83;101082.97;5114184;27;20636;-58
2021/06/30 07:50:31;;;;;;;2.88;1.65;;;;;;;15.64;85.19;101080.34;5101905;27;20043;-58
2021/06/30 07:52:58;;;;;;;3.30;1.65;;;;;;;15.75;84.69;101082.09;5126598;27;20093;-57
2021/06/30 07:55:25;;;;;;;4.40;2.20;;;;;;;15.83;84.13;101081.50;5125721;27;20031;-58
2021/06/30 07:57:52;;;;;;;5.30;3.00;;;;;;;15.69;85.78;101090.53;5126243;27;20055;-57
2021/06/30 08:00:18;;;;;;;4.05;2.20;;;;;;;15.71;86.70;101076.19;5123093;27;20054;-58
2021/06/30 08:02:45;;;;;;;5.03;2.40;;;;;;;15.84;86.15;101078.72;5121785;27;20712;-58
2021/06/30 08:05:12;;;;;;;3.40;2.00;;;;;;;15.95;86.16;101080.47;5126107;27;20495;-59
2021/06/30 08:07:39;;;;;;;3.88;2.28;;;;;;;15.87;84.60;101074.97;5127383;27;20035;-58
2021/06/30 08:10:08;;;;;;;3.17;2.10;;;;;;;15.69;84.37;101072.84;5125521;27;20053;-59
2021/06/30 08:12:35;;;;;;;3.95;2.20;;;;;;;15.83;85.55;101073.53;5109211;28;20109;-59
2021/06/30 08:15:04;;;;;;;4.10;2.42;;;;;;;15.95;84.45;101079.59;5100512;28;20407;-59
2021/06/30 08:17:30;;;;;;;3.85;2.40;;;;;;;16.01;84.80;101087.88;5109545;28;20499;-59
2021/06/30 08:19:57;;;;;;;3.58;2.22;;;;;;;16.10;85.91;101085.44;5108752;27;20054;-58
2021/06/30 08:22:24;;;;;;;5.68;2.40;;;;;;;16.07;85.04;101086.53;5111641;28;20147;-58
2021/06/30 08:24:51;;;;;;;4.43;2.40;;;;;;;16.02;84.67;101094.03;5112218;28;20093;-58
2021/06/30 08:27:20;;;;;;;4.57;2.50;;;;;;;15.95;83.87;101096.38;5113975;27;20052;-58
2021/06/30 08:29:47;;;;;;;4.00;2.45;;;;;;;16.06;85.04;101092.81;5125416;27;20097;-58
2021/06/30 08:32:14;;;;;;;4.10;2.28;;;;;;;16.07;84.39;101102.44;5113365;28;20052;-58
2021/06/30 08:34:41;;;;;;;5.45;2.50;;;;;;;16.12;84.25;101083.50;5118432;27;20047;-58
2021/06/30 08:37:08;;;;;;;4.40;2.08;;;;;;;16.02;nan;101094.03;5124291;27;20043;-58
2021/06/30 08:39:35;;;;;;;5.05;2.35;;;;;;;15.85;83.60;101093.63;5113340;28;20039;-59
2021/06/30 08:42:02;;;;;;;4.25;1.95;;;;;;;15.96;84.15;101087.44;5117932;27;20047;-53
2021/06/30 08:44:34;;;;;;;3.13;1.73;;;;;;;15.90;83.20;101087.97;5109157;27;20534;-54
2021/06/30 08:47:01;;;;;;;4.07;2.28;;;;;;;16.00;83.06;101096.81;5125913;27;20047;-50
2021/06/30 08:49:28;;;;;;;3.88;2.08;;;;;;;16.13;83.16;101095.75;5102639;28;20044;-53
2021/06/30 08:51:57;;;;;;;4.03;2.55;;;;;;;16.04;83.89;101097.41;5091522;28;20048;-53
2021/06/30 08:54:25;;;;;;;4.63;2.47;;;;;;;16.00;84.55;101093.31;5089845;28;20048;-52
2021/06/30 08:56:52;;;;;;;4.35;2.20;;;;;;;15.88;83.47;101101.34;5115074;27;20051;-54
2021/06/30 08:59:21;;;;;;;4.78;2.33;;;;;;;15.90;84.15;101090.59;5112462;27;20039;-53
2021/06/30 09:01:48;;;;;;;3.10;1.90;;;;;;;16.00;83.66;101095.97;5110009;27;20054;-52
2021/06/30 09:04:15;;;;;;;5.32;2.40;;;;;;;16.13;83.89;101103.72;5127038;27;20113;-57
2021/06/30 09:06:42;;;;;;;3.83;2.05;;;;;;;16.09;83.55;101105.81;5130008;27;20047;-53
2021/06/30 09:09:12;;;;;;;4.28;2.35;;;;;;;16.13;83.54;101106.38;5118312;28;20047;-55
2021/06/30 09:11:41;;;;;;;3.67;2.03;;;;;;;16.13;83.53;101112.53;5092099;28;20052;-59
2021/06/30 09:14:21;;;;;;;4.55;2.60;;;;;;;16.02;83.53;101110.78;5118078;28;20120;-58
2021/06/30 09:16:56;;;;;;;4.80;2.20;;;;;;;16.04;83.08;101111.50;5117148;28;20407;-59
2021/06/30 09:19:46;;;;;;;4.50;2.30;;;;;;;16.05;83.57;101118.50;5108562;28;20399;-59
2021/06/30 09:22:13;;;;;;;3.75;2.35;;;;;;;16.20;82.84;101118.19;5128484;28;20078;-59
2021/06/30 09:24:40;;;;;;;4.82;2.20;;;;;;;16.23;83.60;101110.78;5101002;28;20051;-59
2021/06/30 09:27:09;;;;;;;4.20;2.40;;;;;;;16.15;84.04;101115.91;5126238;28;20054;-59
2021/06/30 09:29:38;;;;;;;4.80;2.30;;;;;;;16.13;83.47;101119.66;5109521;28;20120;-59
2021/06/30 09:32:17;;;;;;;5.32;2.15;;;;;;;16.13;83.08;101122.28;5109050;28;20065;-59
2021/06/30 09:34:44;;;;;;;4.25;2.10;;;;;;;16.15;82.84;101126.50;5102057;28;20527;-59
2021/06/30 09:37:11;;;;;;;3.83;2.05;;;;;;;16.11;84.17;101134.88;5093543;28;20039;-60
2021/06/30 09:39:58;;;;;;;4.78;2.10;;;;;;;16.12;83.47;101132.06;5075113;28;20043;-59
2021/06/30 09:42:34;;;;;;;3.67;2.10;;;;;;;16.17;82.48;101134.34;5109129;28;20051;-59
2021/06/30 09:45:19;;;;;;;4.38;2.28;;;;;;;16.22;82.86;101134.78;5118540;28;20522;-59
2021/06/30 09:47:49;;;;;;;3.38;1.83;;;;;;;16.24;82.77;101130.22;5099445;28;20083;-60
2021/06/30 09:50:17;;;;;;;4.28;1.73;;;;;;;16.20;82.11;101129.63;5128320;28;20043;-62
2021/06/30 09:52:46;;;;;;;3.97;2.10;;;;;;;16.36;82.92;101133.63;5085305;28;20059;-60
2021/06/30 09:55:29;;;;;;;3.13;1.90;;;;;;;16.41;81.63;101126.09;5113035;28;20104;-60
2021/06/30 09:57:58;;;;;;;5.00;2.08;;;;;;;16.23;83.00;101128.53;5092475;28;20051;-60
2021/06/30 10:00:29;;;;;;;3.95;2.33;;;;;;;16.21;83.69;101135.75;5102042;27;20063;-60
2021/06/30 10:02:56;;;;;;;4.28;2.20;;;;;;;16.11;83.66;101142.81;5101825;27;20558;-61
2021/06/30 10:05:28;;;;;;;3.40;2.08;;;;;;;16.23;83.94;101134.66;5122392;27;20142;-61
2021/06/30 10:08:11;;;;;;;4.38;2.10;;;;;;;16.17;83.35;101135.19;5124521;27;20035;-61
2021/06/30 10:10:38;;;;;;;;;;;;;;;16.22;84.91;101132.13;5127512;27;20132;-60
2021/06/30 10:13:05;;;;;;;3.97;2.20;;;;;;;16.25;84.21;101133.69;5130489;27;19919;-60
2021/06/30 10:15:33;;;;;;;3.60;1.98;;;;;;;16.29;83.91;101133.31;5112590;27;20051;-61
2021/06/30 10:18:01;;;;;;;4.32;2.17;;;;;;;16.35;84.12;101134.59;5125062;27;20521;-61
2021/06/30 10:20:41;;;;;;;3.00;1.67;;;;;;;16.46;84.65;101128.38;5116381;27;20039;-61
2021/06/30 10:23:08;;;;;;;4.85;1.75;;;;;;;16.36;83.59;101129.16;5127972;27;20055;-60
2021/06/30 10:25:35;;;;;;;4.32;2.30;;;;;;;16.36;84.10;101123.84;5130977;27;20039;-54
2021/06/30 10:28:02;;;;;;;3.78;2.17;;;;;;;16.45;84.54;101126.69;5110175;28;20044;-54
2021/06/30 10:30:29;;;;;;;4.03;2.20;;;;;;;16.57;84.42;101120.34;5111442;28;20036;-55
2021/06/30 10:32:58;;;;;;;3.75;2.00;;;;;;;16.64;83.71;101124.13;5108864;28;20047;-54
2021/06/30 10:35:32;;;;;;;4.60;2.60;;;;;;;16.76;83.40;101124.06;5114461;27;20047;-54
2021/06/30 10:37:58;;;;;;;4.15;2.33;;;;;;;16.81;80.89;101127.13;5117581;27;20050;-56
2021/06/30 10:40:30;;;;;;;4.70;2.25;;;;;;;16.96;82.35;101117.88;5115650;27;20502;-56
2021/06/30 10:43:11;;;;;;;4.00;2.30;;;;;;;17.12;80.92;101119.16;5116948;27;20403;-55
2021/06/30 10:45:38;;;;;;;4.07;2.00;;;;;;;17.29;80.24;101112.34;5114999;27;20060;-55
2021/06/30 10:48:11;;;;;;;2.92;2.00;;;;;;;17.22;79.55;101114.72;5111928;27;20088;-54
2021/06/30 10:50:45;;;;;;;3.92;2.08;;;;;;;17.37;80.54;101116.00;5106550;28;20487;-56
2021/06/30 10:53:14;;;;;;;2.28;1.58;;;;;;;17.40;79.99;101106.91;5114580;27;20051;-56
2021/06/30 10:55:48;;;;;;;4.03;1.90;;;;;;;17.45;80.01;101109.16;5122335;27;20442;-55
2021/06/30 10:58:26;;;;;;;2.55;1.70;;;;;;;17.36;79.92;101116.97;5119787;27;20051;-56
2021/06/30 11:01:16;;;;;;;3.20;2.10;;;;;;;17.29;77.93;101123.81;5117067;27;20070;-56
2021/06/30 11:03:44;;;;;;;4.82;2.00;;;;;;;17.47;78.17;101121.31;5113241;27;20048;-55
2021/06/30 11:06:17;;;;;;;3.63;1.92;;;;;;;17.40;76.95;101120.22;5097757;27;20070;-57
2021/06/30 11:08:45;;;;;;;3.88;2.33;;;;;;;17.63;78.54;101123.44;5095273;27;20122;-61
2021/06/30 11:11:17;;;;;;;3.83;2.22;;;;;;;17.56;77.03;101122.28;5117765;27;20520;-57
2021/06/30 11:14:08;;;;;;;4.00;2.20;;;;;;;17.50;77.47;101136.16;5111537;27;20059;-56
2021/06/30 11:16:42;;;;;;;3.83;2.40;;;;;;;17.58;80.07;101141.63;5113672;27;20368;-54
2021/06/30 11:19:18;;;;;;;3.00;1.88;;;;;;;17.67;79.01;101140.81;5109974;27;20541;-56
2021/06/30 11:21:48;;;;;;;3.05;1.58;;;;;;;17.64;78.88;101138.44;5124537;27;20059;-57
2021/06/30 11:24:39;;;;;;;2.45;1.70;;;;;;;17.55;77.91;101144.56;5109866;27;20047;-56
2021/06/30 11:27:11;;;;;;;2.90;1.45;;;;;;;17.69;77.95;101146.81;5071880;27;20553;-56
2021/06/30 11:29:47;;;;;;;2.73;1.50;;;;;;;17.52;78.31;101148.34;5108072;27;20050;-55
2021/06/30 11:32:35;;;;;;;2.53;1.77;;;;;;;17.66;77.62;101146.25;5110911;27;20295;-57
2021/06/30 11:35:11;;;;;;;3.05;1.92;;;;;;;17.49;78.29;101150.44;5104288;28;20555;-57
2021/06/30 11:37:43;;;;;;;3.13;1.90;;;;;;;17.46;78.13;101150.72;5122258;27;20133;-54
2021/06/30 11:40:20;;;;;;;3.90;2.28;;;;;;;17.34;79.07;101155.28;5121073;27;20058;-57
2021/06/30 11:42:50;;;;;;;3.15;1.65;;;;;;;17.43;78.27;101153.66;5116933;27;20054;-57
2021/06/30 11:45:20;;;;;;;2.92;1.80;;;;;;;17.30;78.56;101153.88;5113386;27;20043;-56
2021/06/30 11:47:50;;;;;;;3.95;1.90;;;;;;;17.18;79.11;101161.16;5112465;27;20108;-61